Latest Coastal Weather Observations for Strahan

IDT60701

Issued at 11:15 am EST Saturday 26 July 2014 (issued every 10 minutes, with the page automatically refreshed every 10 minutes)

About coastal observations | Map of coastal stations | Coastal observations for TAS | Marine services | Other Formats
Station Details ID: 097072 Name: STRAHAN AERODROME Lat: -42.16 Lon: 145.29 Height: 21.0 m
Data from the previous 72 hours. | See also: Recent months at Strahan
Date/Time
EST
Temp

°C
Wind Pressure Rain
since 9am
mm
Weather Cloud Vis
km
Sea
Height
m
Swell
Dir
 
Speed
knots
Gust
knots
hPa Trend Height
m
Period
s
Dir
26/11:00am 9.7 SE 5 7 1021.0 - 0.0 - - 10 - - - -
26/10:30am 8.9 SSE 4 5 1021.0 - 0.0 - - 10 - - - -
26/10:00am 8.8 SE 4 5 1020.8 - 0.0 - - 10 - - - -
26/09:30am 7.4 SE 3 4 1020.9 - 0.0 - - 10 - - - -
26/09:00am 6.8 CALM 0 0 1020.7 - 0.8 - - 10 - - - -
26/08:30am 4.8 ENE 2 4 1020.4 - 0.8 - - 10 - - - -
26/08:16am 3.2 E 2 4 1020.4 - 0.8 - - 10 - - - -
26/08:00am 3.9 CALM 0 0 1020.2 - 0.8 - - 1 - - - -
26/07:30am 3.6 CALM 0 0 1019.9 - 0.8 - - 2 - - - -
26/07:00am 4.2 ESE 5 5 1019.5 - 0.8 - Partly cloudy 3 - - - -
26/06:30am 4.2 E 4 5 1019.3 - 0.8 - - 0.8 - - - -
26/06:02am 4.6 ESE 3 4 1019.0 - 0.8 - Partly cloudy 5 - - - -
26/06:00am 4.6 ESE 3 5 1019.0 - 0.8 - Partly cloudy 7 - - - -
26/05:30am 5.3 SE 3 4 1018.9 - 0.8 - Cloudy 10 - - - -
26/05:00am 5.8 CALM 0 4 1018.8 - 0.8 - Cloudy 10 - - - -
26/04:30am 5.4 E 5 5 1018.4 - 0.8 - Cloudy 10 - - - -
26/04:00am 5.7 SSE 5 6 1018.4 - 0.8 - Cloudy 10 - - - -
26/03:30am 4.9 E 2 5 1018.4 - 0.8 - Partly cloudy 10 - - - -
26/03:19am 5.3 NE 3 4 1018.3 - 0.8 - Partly cloudy 10 - - - -
26/03:00am 4.3 E 4 5 1018.3 - 0.8 - Cloudy 2 - - - -
26/02:30am 4.5 CALM 0 3 1018.6 - 0.8 - Partly cloudy 1 - - - -
26/02:25am 4.5 NNE 2 5 1018.5 - 0.8 - Partly cloudy 5 - - - -
26/02:12am 5.8 ENE 4 5 1018.4 - 0.8 - Partly cloudy 10 - - - -
26/02:00am 5.5 E 4 5 1018.2 - 0.8 - - 5 - - - -
26/01:30am 4.9 E 5 6 1018.0 - 0.8 - - 0.2 - - - -
26/01:14am 5.0 ESE 5 7 1017.9 - 0.8 - - 3 - - - -
26/01:00am 5.6 E 3 4 1017.8 - 0.8 - - 10 - - - -
26/12:30am 5.3 N 5 7 1017.8 - 0.8 - Partly cloudy 8 - - - -
26/12:00am 7.0 NE 4 5 1017.9 - 0.8 - Mostly cloudy 8 - - - -
 
Date/Time
EST
Temp

°C
Wind Pressure Rain
since 9am
mm
Weather Cloud Vis
km
Sea
Height
m
Swell
Dir
 
Speed
knots
Gust
knots
hPa Trend Height
m
Period
s
Dir
25/11:30pm 7.0 E 4 4 1017.9 - 0.8 - Cloudy 1 - - - -
25/11:00pm 6.6 E 1 4 1017.9 - 0.8 - Cloudy 4 - - - -
25/10:30pm 7.0 E 1 3 1017.7 - 0.8 - Cloudy 4 - - - -
25/10:11pm 6.9 E 1 5 1017.7 - 0.8 - Cloudy 5 - - - -
25/10:00pm 7.1 CALM 0 0 1017.7 - 0.8 - Partly cloudy 10 - - - -
25/09:30pm 7.1 N 1 3 1017.6 - 0.8 - Partly cloudy 10 - - - -
25/09:00pm 7.2 CALM 0 0 1017.7 - 0.8 - Cloudy 10 - - - -
25/08:45pm 7.3 E 2 3 1017.6 - 0.8 - Partly cloudy 8 - - - -
25/08:30pm 7.5 E 4 4 1017.4 - 0.8 - Partly cloudy 5 - - - -
25/08:28pm 7.5 E 4 4 1017.5 - 0.8 - Partly cloudy 5 - - - -
25/08:00pm 7.8 SSE 4 5 1017.6 - 0.8 - Partly cloudy 10 - - - -
25/07:30pm 7.6 SSE 1 4 1017.3 - 0.8 - Cloudy 10 - - - -
25/07:00pm 7.7 SE 3 4 1016.9 - 0.8 - Cloudy 10 - - - -
25/06:30pm 8.2 S 5 6 1016.8 - 0.8 - Cloudy 10 - - - -
25/06:00pm 7.9 SSE 4 5 1016.2 - 0.8 Recent precip. Cloudy 10 - - - -
25/05:30pm 8.0 SSE 4 5 1016.1 - 0.8 - Cloudy 10 - - - -
25/05:00pm 8.4 S 6 7 1015.9 - 0.6 - Partly cloudy 10 - - - -
25/04:30pm 8.9 SSE 6 8 1015.9 - 0.4 - Partly cloudy 10 - - - -
25/04:00pm 9.3 S 5 8 1015.7 - 0.4 - - 10 - - - -
25/03:30pm 9.4 S 7 10 1015.2 - 0.4 - - 10 - - - -
25/03:00pm 10.3 SSE 5 7 1015.1 - 0.4 - Partly cloudy 10 - - - -
25/02:30pm 9.1 SSE 7 9 1015.0 - 0.4 - Partly cloudy 10 - - - -
25/02:00pm 9.5 SSE 6 8 1015.2 - 0.4 - Cloudy 10 - - - -
25/01:30pm 9.1 SSE 7 9 1015.0 - 0.4 - Cloudy 10 - - - -
25/01:00pm 8.7 SSE 5 7 1015.3 - 0.4 - Cloudy 10 - - - -
25/12:30pm 8.6 S 6 8 1015.4 - 0.4 - Cloudy 10 - - - -
25/12:00pm 8.5 S 5 7 1015.7 - 0.4 - Cloudy 10 - - - -
25/11:30am 8.5 SSE 6 8 1016.1 - 0.4 - Partly cloudy 10 - - - -
25/11:00am 7.9 S 6 8 1016.3 - 0.4 - Cloudy 10 - - - -
25/10:30am 7.5 SE 5 6 1016.4 - 0.4 - Cloudy 10 - - - -
25/10:00am 7.3 SE 4 4 1016.4 - 0.4 - Partly cloudy 10 - - - -
25/09:30am 7.1 SSE 1 3 1016.5 - 0.0 - Partly cloudy 10 - - - -
25/09:00am 6.7 SSE 5 6 1016.4 - 0.0 - Mostly cloudy 10 - - - -
25/08:30am 6.6 S 4 5 1016.1 - 0.0 - Cloudy 10 - - - -
25/08:00am 6.4 SSE 4 4 1015.7 - 0.0 - Partly cloudy 10 - - - -
25/07:30am 6.2 SE 3 5 1015.4 - 0.0 - Cloudy 10 - - - -
25/07:00am 6.1 SSE 4 6 1015.3 - 0.0 - Partly cloudy 10 - - - -
25/06:30am 5.9 SE 6 7 1014.9 - 0.0 - Partly cloudy 10 - - - -
25/06:00am 6.5 S 6 7 1014.7 - 0.0 - Cloudy 10 - - - -
25/05:30am 6.4 ESE 3 4 1014.6 - 0.0 - Partly cloudy 10 - - - -
25/05:00am 6.3 SE 5 7 1014.7 - 0.0 - Cloudy 10 - - - -
25/04:30am 6.4 SSE 5 7 1014.5 - 0.0 - Cloudy 10 - - - -
25/04:00am 6.5 S 5 5 1014.7 - 0.0 - Cloudy 10 - - - -
25/03:30am 6.3 SSE 5 6 1014.6 - 0.0 - Cloudy 10 - - - -
25/03:00am 5.8 SSE 4 6 1014.9 - 0.0 - Mostly cloudy 10 - - - -
25/02:30am 5.9 S 8 10 1014.9 - 0.0 - Partly cloudy 10 - - - -
25/02:00am 5.9 SSE 5 6 1015.1 - 0.0 - Cloudy 10 - - - -
25/01:30am 5.7 SE 5 7 1015.1 - 0.0 - Partly cloudy 10 - - - -
25/01:00am 5.9 SSE 5 7 1015.3 - 0.0 - Partly cloudy 10 - - - -
25/12:30am 6.3 S 7 10 1015.5 - 0.0 - Cloudy 10 - - - -
25/12:00am 5.8 S 6 8 1015.8 - 0.0 - Cloudy 10 - - - -
 
Date/Time
EST
Temp

°C
Wind Pressure Rain
since 9am
mm
Weather Cloud Vis
km
Sea
Height
m
Swell
Dir
 
Speed
knots
Gust
knots
hPa Trend Height
m
Period
s
Dir
24/11:30pm 5.6 SSE 5 7 1016.1 - 0.0 - Cloudy 10 - - - -
24/11:00pm 5.6 S 7 9 1016.1 - 0.0 - Partly cloudy 10 - - - -
24/10:30pm 4.6 SE 6 8 1016.2 - 0.0 - Partly cloudy 10 - - - -
24/10:00pm 4.3 SSE 5 7 1016.4 - 0.0 - Cloudy 10 - - - -
24/09:30pm 4.8 SSE 6 6 1016.4 - 0.0 - - 10 - - - -
24/09:00pm 4.7 SE 5 7 1016.4 - 0.0 - Mostly cloudy 10 - - - -
24/08:30pm 4.9 SSE 4 5 1016.3 - 0.0 - - 10 - - - -
24/08:00pm 5.6 S 2 5 1016.2 - 0.0 - - 10 - - - -
24/07:30pm 5.0 CALM 0 0 1016.2 - 0.0 - - 10 - - - -
24/07:00pm 4.5 S 3 4 1016.2 - 0.0 - - 10 - - - -
24/06:30pm 5.1 S 4 5 1016.1 - 0.0 - - 10 - - - -
24/06:00pm 5.7 S 5 6 1016.0 - 0.0 - Mostly clear 10 - - - -
24/05:30pm 7.0 SSE 5 6 1015.9 - 0.0 - - 10 - - - -
24/05:00pm 7.8 S 6 7 1015.9 - 0.0 - - 10 - - - -
24/04:30pm 8.7 S 6 8 1015.8 - 0.0 - - 10 - - - -
24/04:00pm 10.6 S 5 7 1015.8 - 0.0 - - 10 - - - -
24/03:30pm 11.5 SSE 6 8 1015.8 - 0.0 - - 10 - - - -
24/03:00pm 12.7 SSE 6 9 1015.8 - 0.0 - Mostly cloudy 10 - - - -
24/02:30pm 11.9 ESE 7 9 1016.0 - 0.0 - - 10 - - - -
24/02:00pm 11.4 ESE 5 7 1016.0 - 0.0 - - 10 - - - -
24/01:30pm 9.6 SSE 7 9 1016.4 - 0.0 - - 10 - - - -
24/01:00pm 8.9 SSE 8 10 1016.9 - 0.0 - - 10 - - - -
24/12:30pm 8.6 SSE 8 11 1017.3 - 0.0 - - 10 - - - -
24/12:00pm 8.5 SSE 8 10 1017.7 - 0.0 - Cloudy 10 - - - -
24/11:30am 7.1 SSE 8 10 1018.2 - 0.0 - - 10 - - - -
24/11:00am 6.5 SSE 8 10 1018.5 - 0.0 - - 10 - - - -
24/10:30am 5.5 SSE 9 11 1018.7 - 0.0 - - 10 - - - -
24/10:00am 4.6 SSE 7 9 1019.0 - 0.0 - - 10 - - - -
24/09:30am 4.1 SE 4 6 1019.3 - 0.0 - - 10 - - - -
24/09:00am 2.0 ESE 4 5 1019.3 - 0.0 - - 10 - - - -
24/08:30am 1.6 E 3 4 1019.3 - 0.0 - - 10 - - - -
24/08:00am 1.0 E 4 5 1019.0 - 0.0 - - 10 - - - -
24/07:30am 0.7 E 5 5 1018.9 - 0.0 - - 10 - - - -
24/07:13am 0.1 E 4 5 1018.9 - 0.0 - - 10 - - - -
24/07:00am 0.1 E 4 5 1018.8 - 0.0 - - 2 - - - -
24/06:51am 0.4 ESE 4 4 1018.7 - 0.0 - - 5 - - - -
24/06:30am 0.6 NE 3 3 1018.8 - 0.0 - - 10 - - - -
24/06:00am 1.7 NE 3 4 1018.7 - 0.0 - Cloudy 10 - - - -
24/05:30am 1.3 NE 2 4 1018.6 - 0.0 - - 10 - - - -
24/05:00am 2.1 NE 5 6 1018.6 - 0.0 - - 10 - - - -
24/04:30am 0.7 ENE 5 6 1018.7 - 0.0 - - 10 - - - -
24/04:00am 2.2 NE 4 5 1018.9 - 0.0 - - 10 - - - -
24/03:30am 2.5 NE 5 7 1018.9 - 0.0 - - 10 - - - -
24/03:00am 1.7 NE 4 6 1018.9 - 0.0 - Cloudy 10 - - - -
24/02:30am 1.8 N 4 5 1019.1 - 0.0 - - 10 - - - -
24/02:00am 2.4 N 2 5 1019.1 - 0.0 - - 10 - - - -
24/01:30am 1.4 N 1 4 1019.1 - 0.0 - - 10 - - - -
24/01:00am 1.2 CALM 0 0 1019.2 - 0.0 - - 10 - - - -
24/12:58am 1.2 CALM 0 0 1019.3 - 0.0 - - 10 - - - -
24/12:36am 1.7 NE 1 3 1019.4 - 0.0 - - 4 - - - -
24/12:30am 2.2 NE 2 4 1019.4 - 0.0 - - 10 - - - -
24/12:00am 3.2 NE 4 5 1019.6 - 0.0 - Partly cloudy 10 - - - -
 
Date/Time
EST
Temp

°C
Wind Pressure Rain
since 9am
mm
Weather Cloud Vis
km
Sea
Height
m
Swell
Dir
 
Speed
knots
Gust
knots
hPa Trend Height
m
Period
s
Dir
23/11:30pm 3.6 NE 4 5 1019.9 - 0.0 - - 10 - - - -
23/11:00pm 3.5 NE 5 6 1020.2 - 0.0 - - 10 - - - -
23/10:30pm 3.8 NE 4 5 1020.3 - 0.0 - - 10 - - - -
23/10:12pm 3.3 ENE 4 5 1020.5 - 0.0 - - 10 - - - -
23/10:00pm 3.1 ENE 4 5 1020.6 - 0.0 - - 2 - - - -
23/09:50pm 2.8 E 4 5 1020.7 - 0.0 - - 5 - - - -
23/09:30pm 3.9 NE 4 5 1020.7 - 0.0 - - 10 - - - -
23/09:00pm 3.9 NE 5 6 1020.9 - 0.0 - - 10 - - - -
23/08:43pm 3.7 NNE 4 5 1020.9 - 0.0 - - 10 - - - -
23/08:30pm 3.3 ENE 4 5 1020.8 - 0.0 - - 1 - - - -
23/08:10pm 2.9 CALM 0 0 1020.9 - 0.0 - - 5 - - - -
23/08:00pm 3.5 CALM 0 3 1020.9 - 0.0 - - 10 - - - -
23/07:30pm 3.9 NNE 4 6 1020.9 - 0.0 - - 10 - - - -
23/07:00pm 3.7 NNE 5 6 1020.8 - 0.0 - - 10 - - - -
23/06:30pm 5.2 NNE 4 5 1020.8 - 0.0 - - 10 - - - -
23/06:00pm 5.2 CALM 0 0 1020.5 - 0.0 - - 10 - - - -
23/05:30pm 6.1 CALM 0 0 1020.5 - 0.0 - - 10 - - - -
23/05:00pm 8.1 SE 3 4 1020.6 - 0.0 - - 10 - - - -
23/04:30pm 9.7 SSE 3 4 1020.6 - 0.0 - - 10 - - - -
23/04:00pm 10.8 SSE 4 5 1020.6 - 0.0 - - 10 - - - -
23/03:30pm 11.7 SW 5 7 1020.8 - 0.0 - - 10 - - - -
23/03:00pm 12.1 WSW 5 7 1020.8 - 0.0 - - 10 - - - -
23/02:30pm 12.2 WSW 6 7 1020.9 - 0.0 - - 10 - - - -
23/02:00pm 12.5 SW 5 8 1021.0 - 0.0 - - 10 - - - -
23/01:30pm 11.7 SE 4 5 1021.2 - 0.0 - - 10 - - - -
23/01:00pm 11.2 SSE 5 7 1021.5 - 0.0 - - 10 - - - -
23/12:30pm 11.6 SSE 6 7 1022.0 - 0.0 - - 10 - - - -
23/12:00pm 12.9 NE 3 6 1022.6 - 0.0 - - 10 - - - -
23/11:30am 11.6 ENE 5 7 1023.0 - 0.0 - - 10 - - - -

Other Formats:

Comma delimited format used in spreadsheet applications
http://www.bom.gov.au/fwo/IDT60701/IDT60701.94956.axf

JavaScript Object Notation format (JSON) in row-major order
http://www.bom.gov.au/fwo/IDT60701/IDT60701.94956.json